Time;durP1;ratioP1;P1;durP2;ratioP2;P2;SDS_P1;SDS_P2;PMS_P1;PMS_P2;Temp;Humidity;BMP_temperature;BMP_pressure;BME280_temperature;BME280_humidity;BME280_pressure;Samples;Min_cycle;Max_cycle;Signal;HPM_P1;HPM_P2
2023/07/22 00:01:47;;;;;;;7.38;4.40;;;15.60;99.90;;;;;;5053025;28;20501;-42
2023/07/22 00:04:15;;;;;;;8.45;4.53;;;15.50;99.90;;;;;;5052889;28;20052;-38
2023/07/22 00:06:42;;;;;;;10.13;4.93;;;15.50;99.90;;;;;;5055477;28;20095;-39
2023/07/22 00:09:09;;;;;;;8.35;4.85;;;15.50;99.90;;;;;;5048927;28;20072;-43
2023/07/22 00:11:37;;;;;;;7.75;4.53;;;15.40;99.90;;;;;;5052929;28;20076;-39
2023/07/22 00:14:06;;;;;;;6.63;4.35;;;15.30;99.90;;;;;;5050178;28;20150;-41
2023/07/22 00:16:33;;;;;;;6.82;4.07;;;15.30;99.90;;;;;;5052958;28;20223;-39
2023/07/22 00:19:01;;;;;;;7.07;4.38;;;15.30;99.90;;;;;;5050641;28;20060;-39
2023/07/22 00:21:29;;;;;;;6.50;3.95;;;15.30;99.90;;;;;;5050516;28;20049;-40
2023/07/22 00:23:56;;;;;;;8.48;4.63;;;15.20;99.90;;;;;;5049315;28;20053;-41
2023/07/22 00:26:23;;;;;;;7.40;4.80;;;15.20;99.90;;;;;;5050407;28;20135;-44
2023/07/22 00:28:51;;;;;;;12.90;4.88;;;15.20;99.90;;;;;;5048030;28;20056;-39
2023/07/22 00:31:18;;;;;;;5.72;4.10;;;15.20;99.90;;;;;;5031667;28;20049;-40
2023/07/22 00:33:46;;;;;;;6.38;4.50;;;15.20;99.90;;;;;;5032120;28;20115;-38
2023/07/22 00:36:13;;;;;;;7.97;4.68;;;15.10;99.90;;;;;;5051477;28;20053;-39
2023/07/22 00:38:40;;;;;;;6.60;4.32;;;15.10;99.90;;;;;;5049310;28;20103;-39
2023/07/22 00:41:08;;;;;;;7.07;4.30;;;15.10;99.90;;;;;;5050885;28;20128;-38
2023/07/22 00:43:35;;;;;;;8.43;4.60;;;15.10;99.90;;;;;;5050009;28;20453;-42
2023/07/22 00:46:03;;;;;;;6.43;4.57;;;15.20;99.90;;;;;;5050302;28;20484;-43
2023/07/22 00:48:31;;;;;;;5.18;3.80;;;15.20;99.90;;;;;;5049403;28;20132;-46
2023/07/22 00:50:58;;;;;;;6.75;4.30;;;15.20;99.90;;;;;;5049353;28;20037;-43
2023/07/22 00:53:26;;;;;;;10.30;4.35;;;15.20;99.90;;;;;;5032165;28;20071;-41
2023/07/22 00:55:54;;;;;;;8.43;4.50;;;15.20;99.90;;;;;;5048685;28;20463;-41
2023/07/22 00:58:22;;;;;;;6.88;4.80;;;15.20;99.90;;;;;;5031407;28;20156;-41
2023/07/22 01:00:49;;;;;;;5.53;3.65;;;15.20;99.90;;;;;;5047819;28;20041;-40
2023/07/22 01:03:18;;;;;;;8.02;4.55;;;15.20;99.90;;;;;;5029725;28;20395;-42
2023/07/22 01:05:48;;;;;;;7.85;5.00;;;15.20;99.90;;;;;;5030056;28;20044;-40
2023/07/22 01:08:16;;;;;;;6.25;4.57;;;15.20;99.90;;;;;;5051588;28;20462;-38
2023/07/22 01:10:43;;;;;;;8.48;4.72;;;15.20;99.90;;;;;;5050662;28;20059;-39
2023/07/22 01:13:10;;;;;;;8.85;4.78;;;15.20;99.90;;;;;;5029703;28;20120;-39
2023/07/22 01:15:38;;;;;;;7.32;4.38;;;15.30;99.90;;;;;;5049170;28;20168;-40
2023/07/22 01:18:06;;;;;;;6.75;4.32;;;15.30;99.90;;;;;;5048134;28;20075;-37
2023/07/22 01:20:35;;;;;;;8.48;4.97;;;15.30;99.90;;;;;;5030492;28;20045;-38
2023/07/22 01:23:03;;;;;;;8.45;4.97;;;15.30;99.90;;;;;;5047813;28;20091;-43
2023/07/22 01:25:30;;;;;;;8.70;4.35;;;15.20;99.90;;;;;;5047406;28;20122;-40
2023/07/22 01:27:58;;;;;;;8.75;4.63;;;15.20;99.90;;;;;;5046148;28;20422;-42
2023/07/22 01:30:27;;;;;;;8.27;4.82;;;15.20;99.90;;;;;;5047989;28;20465;-41
2023/07/22 01:32:55;;;;;;;8.23;4.47;;;15.10;99.90;;;;;;5048880;28;20509;-38
2023/07/22 01:35:22;;;;;;;8.95;4.82;;;15.00;99.90;;;;;;5048005;28;20052;-38
2023/07/22 01:37:50;;;;;;;8.00;4.78;;;15.00;99.90;;;;;;5029696;28;20478;-37
2023/07/22 01:40:17;;;;;;;6.88;4.22;;;14.90;99.90;;;;;;5030402;28;20470;-40
2023/07/22 01:42:45;;;;;;;6.60;3.80;;;14.90;99.90;;;;;;5026150;28;20458;-42
2023/07/22 01:45:12;;;;;;;6.68;4.70;;;14.80;99.90;;;;;;5048092;28;20049;-42
2023/07/22 01:47:40;;;;;;;8.38;4.45;;;14.80;99.90;;;;;;5047131;28;20110;-39
2023/07/22 01:50:09;;;;;;;7.03;4.38;;;14.80;99.90;;;;;;5044703;28;20037;-40
2023/07/22 01:52:37;;;;;;;7.32;4.95;;;14.80;99.90;;;;;;5029018;28;20056;-43
2023/07/22 01:55:05;;;;;;;6.80;4.55;;;14.80;99.90;;;;;;5042193;28;20090;-39
2023/07/22 01:57:34;;;;;;;9.55;4.88;;;14.80;99.90;;;;;;5048374;28;20055;-40
2023/07/22 02:00:05;;;;;;;7.78;4.22;;;14.80;99.90;;;;;;5029082;28;20084;-38
2023/07/22 02:02:39;;;;;;;5.93;4.55;;;14.70;99.90;;;;;;5048902;28;20171;-40
2023/07/22 02:05:09;;;;;;;8.27;4.72;;;14.70;99.90;;;;;;5033087;28;20505;-39
2023/07/22 02:07:38;;;;;;;6.80;4.78;;;14.70;99.90;;;;;;5032733;28;20095;-39
2023/07/22 02:10:06;;;;;;;8.68;4.60;;;14.60;99.90;;;;;;5031833;28;20049;-43
2023/07/22 02:12:34;;;;;;;9.15;4.10;;;14.60;99.90;;;;;;5050369;28;20052;-40
2023/07/22 02:15:02;;;;;;;6.53;4.47;;;14.60;99.90;;;;;;5049324;28;20049;-43
2023/07/22 02:17:30;;;;;;;6.40;4.63;;;14.60;99.90;;;;;;5047754;28;20040;-42
2023/07/22 02:19:58;;;;;;;6.95;4.75;;;14.50;99.90;;;;;;5026631;28;20091;-38
2023/07/22 02:22:25;;;;;;;8.27;5.00;;;14.60;99.90;;;;;;5046879;28;20087;-42
2023/07/22 02:24:53;;;;;;;8.65;4.65;;;14.50;99.90;;;;;;5047857;28;20084;-41
2023/07/22 02:27:20;;;;;;;8.40;4.85;;;14.50;99.90;;;;;;5025461;28;20073;-40
2023/07/22 02:29:47;;;;;;;7.93;5.07;;;14.50;99.90;;;;;;5047268;28;20072;-43
2023/07/22 02:32:15;;;;;;;7.38;4.70;;;14.40;99.90;;;;;;5030435;28;20033;-40
2023/07/22 02:34:42;;;;;;;8.63;4.97;;;14.40;99.90;;;;;;5043407;28;20515;-41
2023/07/22 02:37:09;;;;;;;7.93;5.20;;;14.40;99.90;;;;;;5027046;28;20055;-43
2023/07/22 02:39:37;;;;;;;10.60;5.05;;;14.40;99.90;;;;;;5046647;28;20040;-38
2023/07/22 02:42:06;;;;;;;7.97;4.60;;;14.30;99.90;;;;;;5029169;28;20457;-41
2023/07/22 02:44:34;;;;;;;6.38;4.85;;;14.30;99.90;;;;;;5046512;28;20041;-42
2023/07/22 02:47:02;;;;;;;9.32;4.88;;;14.30;99.90;;;;;;5027111;28;20087;-38
2023/07/22 02:49:29;;;;;;;9.32;4.40;;;14.30;99.90;;;;;;5046661;28;20068;-40
2023/07/22 02:51:56;;;;;;;7.55;4.38;;;14.20;99.90;;;;;;5045712;28;20037;-41
2023/07/22 02:54:23;;;;;;;8.90;4.70;;;14.20;99.90;;;;;;5045174;28;20507;-39
2023/07/22 02:56:51;;;;;;;6.25;4.90;;;14.20;99.90;;;;;;5045454;28;20131;-44
2023/07/22 02:59:18;;;;;;;8.02;4.75;;;14.20;99.90;;;;;;5043159;28;20056;-41
2023/07/22 03:01:46;;;;;;;7.40;4.82;;;14.20;99.90;;;;;;5046022;28;20068;-40
2023/07/22 03:04:14;;;;;;;7.60;4.43;;;14.20;99.90;;;;;;5028716;28;20052;-39
2023/07/22 03:06:42;;;;;;;7.03;4.88;;;14.20;99.90;;;;;;5031225;28;20049;-39
2023/07/22 03:09:11;;;;;;;9.63;5.75;;;14.20;99.90;;;;;;5041106;28;20079;-39
2023/07/22 03:11:38;;;;;;;8.10;4.88;;;14.10;99.90;;;;;;5049034;28;20171;-41
2023/07/22 03:14:05;;;;;;;7.30;4.43;;;14.10;99.90;;;;;;5028543;28;20127;-40
2023/07/22 03:16:33;;;;;;;8.20;4.72;;;14.10;99.90;;;;;;5044325;28;20629;-40
2023/07/22 03:19:00;;;;;;;7.10;4.32;;;14.10;99.90;;;;;;5045540;28;20537;-41
2023/07/22 03:21:27;;;;;;;5.93;4.15;;;14.10;99.90;;;;;;5046793;28;20040;-41
2023/07/22 03:23:55;;;;;;;9.55;4.95;;;14.20;99.90;;;;;;5045985;28;20053;-39
2023/07/22 03:26:22;;;;;;;6.28;4.45;;;14.30;99.90;;;;;;5032615;28;20072;-40
2023/07/22 03:28:49;;;;;;;7.30;4.38;;;14.30;99.90;;;;;;5052946;28;20115;-46
2023/07/22 03:31:17;;;;;;;6.25;4.18;;;14.20;99.90;;;;;;5054214;28;20336;-40
2023/07/22 03:33:46;;;;;;;10.63;5.30;;;14.30;99.90;;;;;;5052874;28;20678;-40
2023/07/22 03:36:13;;;;;;;7.90;4.28;;;14.40;99.90;;;;;;5051284;28;20113;-41
2023/07/22 03:38:40;;;;;;;7.22;4.25;;;14.40;99.90;;;;;;5052257;28;20056;-41
2023/07/22 03:41:08;;;;;;;8.52;4.53;;;14.40;99.90;;;;;;5034165;28;20049;-43
2023/07/22 03:43:35;;;;;;;6.75;4.35;;;14.40;99.90;;;;;;5052137;28;20141;-39
2023/07/22 03:46:02;;;;;;;6.53;4.57;;;14.50;99.90;;;;;;5034174;28;20049;-39
2023/07/22 03:48:29;;;;;;;7.05;4.72;;;14.50;99.90;;;;;;5033729;28;20594;-42
2023/07/22 03:50:57;;;;;;;6.88;4.65;;;14.50;99.90;;;;;;5051481;28;20073;-39
2023/07/22 03:53:42;;;;;;;7.43;4.38;;;14.50;99.90;;;;;;5051022;28;20106;-40
2023/07/22 03:56:09;;;;;;;7.65;4.50;;;14.50;99.90;;;;;;5051982;28;20072;-41
2023/07/22 03:58:37;;;;;;;7.75;5.20;;;14.50;99.90;;;;;;5052040;28;20044;-41
2023/07/22 04:01:04;;;;;;;8.35;4.88;;;14.50;99.90;;;;;;5051536;28;20082;-38
2023/07/22 04:03:31;;;;;;;8.95;4.60;;;14.50;99.90;;;;;;5051654;28;20395;-40
2023/07/22 04:05:59;;;;;;;6.53;4.30;;;14.60;99.90;;;;;;5052689;28;20315;-38
2023/07/22 04:08:26;;;;;;;7.47;4.55;;;14.60;99.90;;;;;;5051848;28;20041;-40
2023/07/22 04:10:57;;;;;;;11.60;6.28;;;14.60;99.90;;;;;;5033263;28;20052;-41
2023/07/22 04:13:26;;;;;;;11.13;6.80;;;14.70;99.90;;;;;;5048566;28;20088;-43
2023/07/22 04:15:54;;;;;;;9.55;5.50;;;14.80;99.90;;;;;;5049325;28;20303;-38
2023/07/22 04:18:22;;;;;;;8.57;5.40;;;14.80;99.90;;;;;;5053865;28;20122;-37
2023/07/22 04:20:57;;;;;;;8.20;5.10;;;14.80;99.90;;;;;;5047822;28;20052;-40
2023/07/22 04:23:24;;;;;;;9.50;4.85;;;14.80;99.90;;;;;;5050650;28;20076;-41
2023/07/22 04:25:52;;;;;;;9.05;4.88;;;14.80;99.90;;;;;;5052864;28;20166;-40
2023/07/22 04:28:19;;;;;;;7.47;4.70;;;14.80;99.90;;;;;;5045172;28;20068;-43
2023/07/22 04:30:55;;;;;;;7.20;4.47;;;14.80;99.90;;;;;;5051885;28;20127;-40
2023/07/22 04:33:23;;;;;;;8.82;4.90;;;14.90;99.90;;;;;;5048443;28;20053;-42
2023/07/22 04:35:54;;;;;;;8.98;4.93;;;14.90;99.90;;;;;;5050429;28;20627;-38
2023/07/22 04:38:21;;;;;;;8.52;5.35;;;14.90;99.90;;;;;;5032162;28;20321;-38
2023/07/22 04:40:49;;;;;;;9.65;5.00;;;14.90;99.90;;;;;;5049322;28;20068;-38
2023/07/22 04:43:16;;;;;;;8.40;4.88;;;15.00;99.90;;;;;;5050021;28;20533;-39
2023/07/22 04:45:47;;;;;;;8.82;5.25;;;15.00;99.90;;;;;;5044069;28;20044;-39
2023/07/22 04:48:20;;;;;;;9.65;5.35;;;15.10;99.90;;;;;;5050155;28;20102;-40
2023/07/22 04:50:48;;;;;;;9.20;5.47;;;15.10;99.90;;;;;;5046700;28;20045;-41
2023/07/22 04:53:17;;;;;;;8.82;5.93;;;15.30;99.90;;;;;;5043584;28;20084;-39
2023/07/22 04:55:44;;;;;;;7.72;5.47;;;15.40;99.90;;;;;;5045794;28;20045;-41
2023/07/22 04:58:11;;;;;;;8.52;5.45;;;15.50;99.90;;;;;;5044224;28;20053;-40
2023/07/22 05:00:39;;;;;;;12.80;7.57;;;15.50;99.90;;;;;;5049273;28;20135;-40
2023/07/22 05:03:06;;;;;;;10.95;7.50;;;15.60;99.90;;;;;;5048637;28;20545;-38
2023/07/22 05:05:33;;;;;;;11.68;7.00;;;15.70;99.90;;;;;;5048976;28;20097;-37
2023/07/22 05:08:01;;;;;;;10.30;6.43;;;15.70;99.90;;;;;;5042665;28;20422;-38
2023/07/22 05:10:29;;;;;;;10.05;6.10;;;15.80;99.90;;;;;;5047660;28;20080;-38
2023/07/22 05:12:59;;;;;;;9.40;6.10;;;15.70;99.90;;;;;;5043559;28;20049;-38
2023/07/22 05:15:26;;;;;;;9.02;5.65;;;15.70;99.90;;;;;;5046313;28;20152;-39
2023/07/22 05:17:54;;;;;;;9.25;5.40;;;15.80;99.90;;;;;;5027868;28;20599;-38
2023/07/22 05:20:21;;;;;;;9.35;5.50;;;15.80;99.90;;;;;;5046518;28;20136;-41
2023/07/22 05:22:49;;;;;;;10.75;5.68;;;15.90;99.90;;;;;;5045490;28;20041;-45
2023/07/22 05:25:16;;;;;;;9.75;5.55;;;15.90;99.90;;;;;;5048173;28;20463;-39
2023/07/22 05:27:44;;;;;;;8.82;5.97;;;16.10;99.90;;;;;;5048042;28;20535;-38
2023/07/22 05:30:11;;;;;;;8.88;5.95;;;16.40;99.90;;;;;;5045901;28;20455;-38
2023/07/22 05:32:59;;;;;;;8.98;6.22;;;16.50;99.90;;;;;;5044913;28;20069;-41
2023/07/22 05:35:26;;;;;;;11.43;6.22;;;16.50;99.90;;;;;;5051008;28;20052;-46
2023/07/22 05:37:54;;;;;;;10.00;7.72;;;16.60;99.90;;;;;;5051002;28;20420;-39
2023/07/22 05:40:21;;;;;;;11.90;7.60;;;16.80;99.90;;;;;;5048867;28;20049;-38
2023/07/22 05:42:49;;;;;;;12.05;9.10;;;17.00;99.90;;;;;;5049877;28;20059;-42
2023/07/22 05:45:17;;;;;;;9.40;6.68;;;17.10;99.90;;;;;;5046424;28;20106;-39
2023/07/22 05:47:44;;;;;;;9.00;6.32;;;17.20;99.90;;;;;;5045098;28;20049;-43
2023/07/22 05:50:11;;;;;;;10.98;6.70;;;17.20;99.90;;;;;;5046366;28;20554;-37
2023/07/22 05:52:39;;;;;;;7.00;5.55;;;17.10;99.90;;;;;;5047326;28;20475;-36
2023/07/22 05:55:06;;;;;;;8.82;5.68;;;17.00;99.90;;;;;;5047845;28;20077;-42
2023/07/22 05:57:34;;;;;;;8.95;5.38;;;17.00;99.90;;;;;;5046182;28;20573;-38
2023/07/22 06:00:02;;;;;;;10.32;5.40;;;17.00;99.90;;;;;;5045973;28;20047;-39
2023/07/22 06:02:38;;;;;;;9.02;5.40;;;17.10;99.90;;;;;;5042128;28;20126;-40
2023/07/22 06:05:06;;;;;;;8.38;4.95;;;17.00;99.90;;;;;;5046861;28;20212;-39
2023/07/22 06:07:33;;;;;;;12.50;5.15;;;17.00;99.90;;;;;;5047783;28;20053;-40
2023/07/22 06:10:01;;;;;;;7.38;5.07;;;17.10;99.90;;;;;;5043935;28;20090;-41
2023/07/22 06:12:29;;;;;;;7.55;5.63;;;17.10;99.90;;;;;;5045359;28;20555;-38
2023/07/22 06:14:57;;;;;;;8.35;5.18;;;17.10;99.90;;;;;;5047859;28;20474;-41
2023/07/22 06:17:25;;;;;;;7.88;5.60;;;17.00;99.90;;;;;;5046206;28;20061;-41
2023/07/22 06:19:52;;;;;;;6.55;4.90;;;16.70;99.90;;;;;;5047192;28;20120;-39
2023/07/22 06:22:19;;;;;;;7.22;5.15;;;16.60;99.90;;;;;;5054049;28;20079;-41
2023/07/22 06:24:47;;;;;;;10.15;5.38;;;16.70;99.90;;;;;;5047269;28;20611;-41
2023/07/22 06:27:14;;;;;;;10.15;4.78;;;16.80;99.90;;;;;;5043033;28;20146;-39
2023/07/22 06:29:42;;;;;;;8.07;5.28;;;16.80;99.90;;;;;;5048203;28;20072;-37
2023/07/22 06:32:09;;;;;;;8.55;5.57;;;16.80;99.90;;;;;;5047761;28;20041;-41
2023/07/22 06:34:36;;;;;;;10.80;5.70;;;16.70;99.90;;;;;;5043305;28;20041;-43
2023/07/22 06:37:04;;;;;;;7.55;5.25;;;16.60;99.90;;;;;;5040327;28;20090;-38
2023/07/22 06:39:32;;;;;;;7.97;5.10;;;16.40;99.90;;;;;;5042343;28;20040;-41
2023/07/22 06:42:04;;;;;;;11.52;5.40;;;16.50;99.90;;;;;;5046121;28;20540;-42
2023/07/22 06:44:37;;;;;;;9.63;5.10;;;16.70;99.90;;;;;;5047626;28;20118;-44
2023/07/22 06:47:05;;;;;;;8.13;5.53;;;16.80;99.90;;;;;;5045519;28;20051;-43
2023/07/22 06:49:33;;;;;;;7.68;5.30;;;16.90;99.90;;;;;;5045005;28;21312;-47
2023/07/22 06:52:01;;;;;;;7.63;4.53;;;16.90;99.90;;;;;;5044357;28;20126;-43
2023/07/22 06:54:29;;;;;;;10.18;5.47;;;16.90;99.90;;;;;;5045070;28;20120;-41
2023/07/22 06:56:56;;;;;;;7.60;5.10;;;16.80;99.90;;;;;;5044087;28;20040;-42
2023/07/22 06:59:24;;;;;;;8.98;5.45;;;16.90;99.90;;;;;;5043679;28;20125;-48
2023/07/22 07:01:52;;;;;;;7.95;5.60;;;17.10;99.90;;;;;;5045177;28;20120;-41
2023/07/22 07:04:20;;;;;;;7.78;5.47;;;17.30;99.90;;;;;;5043080;28;20055;-42
2023/07/22 07:06:48;;;;;;;15.13;8.02;;;17.50;99.90;;;;;;5046305;28;20048;-45
2023/07/22 07:09:16;;;;;;;10.82;6.93;;;17.80;99.90;;;;;;5044055;28;20514;-40
2023/07/22 07:11:44;;;;;;;8.43;5.78;;;18.10;99.90;;;;;;5046162;28;20107;-40
2023/07/22 07:14:12;;;;;;;9.70;5.82;;;18.20;99.90;;;;;;5044385;28;20124;-39
2023/07/22 07:16:40;;;;;;;9.57;5.50;;;18.20;99.90;;;;;;5046455;28;20092;-46
2023/07/22 07:19:07;;;;;;;7.70;5.70;;;18.30;99.90;;;;;;5045379;28;20464;-44
2023/07/22 07:21:36;;;;;;;7.72;5.15;;;18.30;99.90;;;;;;5043224;28;20528;-45
2023/07/22 07:24:03;;;;;;;11.43;5.90;;;18.60;99.90;;;;;;5044701;28;20072;-45
2023/07/22 07:26:30;;;;;;;8.27;5.75;;;18.70;99.90;;;;;;5045249;28;20083;-44
2023/07/22 07:28:58;;;;;;;8.82;5.95;;;18.70;99.90;;;;;;5046686;28;20072;-41
2023/07/22 07:31:25;;;;;;;8.82;6.65;;;18.80;99.90;;;;;;5025056;28;20056;-42
2023/07/22 07:33:54;;;;;;;10.40;6.60;;;18.60;99.90;;;;;;5046225;28;20056;-41
2023/07/22 07:36:22;;;;;;;9.43;6.20;;;18.60;99.90;;;;;;5044669;28;20413;-44
2023/07/22 07:38:54;;;;;;;12.70;6.32;;;18.60;99.90;;;;;;5012466;28;20103;-42
2023/07/22 07:41:22;;;;;;;9.98;6.20;;;18.60;99.90;;;;;;5044165;28;20052;-44
2023/07/22 07:43:50;;;;;;;10.43;6.88;;;18.60;99.90;;;;;;5044475;28;20468;-44
2023/07/22 07:46:25;;;;;;;9.00;5.72;;;18.70;99.90;;;;;;5042583;28;20064;-47
2023/07/22 07:48:59;;;;;;;11.77;7.60;;;18.60;99.90;;;;;;5042023;28;20064;-46
2023/07/22 07:51:29;;;;;;;12.85;7.40;;;18.60;99.90;;;;;;5045700;28;20057;-41
2023/07/22 07:53:58;;;;;;;10.98;7.32;;;18.70;99.90;;;;;;5043886;28;20442;-45
2023/07/22 07:56:26;;;;;;;12.55;7.80;;;18.70;99.90;;;;;;5045099;28;20063;-45
2023/07/22 07:58:54;;;;;;;11.82;7.07;;;18.70;99.90;;;;;;5040801;28;20063;-45
2023/07/22 08:01:22;;;;;;;10.27;6.45;;;18.80;99.90;;;;;;5045027;28;20113;-41
2023/07/22 08:03:49;;;;;;;8.70;6.70;;;18.90;99.90;;;;;;5034578;28;20405;-39
2023/07/22 08:06:17;;;;;;;10.02;7.45;;;18.90;99.90;;;;;;5041145;28;20111;-45
2023/07/22 08:08:46;;;;;;;8.35;6.78;;;18.90;99.90;;;;;;5041051;28;20033;-42
2023/07/22 08:11:14;;;;;;;9.40;6.90;;;19.00;99.90;;;;;;5039041;28;20045;-48
2023/07/22 08:13:43;;;;;;;9.88;6.88;;;19.20;99.90;;;;;;5048102;28;20037;-48
2023/07/22 08:16:13;;;;;;;8.30;6.40;;;19.60;99.90;;;;;;5048145;28;20048;-43
2023/07/22 08:18:41;;;;;;;10.55;7.75;;;19.90;99.90;;;;;;5049727;28;20083;-48
2023/07/22 08:21:09;;;;;;;7.75;6.40;;;20.40;99.90;;;;;;5048305;28;20045;-48
2023/07/22 08:23:37;;;;;;;8.13;6.35;;;20.80;99.90;;;;;;5048306;28;20138;-48
2023/07/22 08:26:07;;;;;;;11.95;7.13;;;21.00;99.90;;;;;;5047696;28;20100;-50
2023/07/22 08:28:35;;;;;;;9.10;7.38;;;21.10;99.90;;;;;;5047331;28;20426;-47
2023/07/22 08:31:02;;;;;;;10.80;7.80;;;21.20;99.90;;;;;;5048308;28;20537;-46
2023/07/22 08:33:30;;;;;;;7.43;6.60;;;21.20;99.90;;;;;;5046845;28;20099;-47
2023/07/22 08:36:08;;;;;;;11.60;7.78;;;21.40;99.90;;;;;;5047029;28;20068;-46
2023/07/22 08:38:36;;;;;;;8.50;6.68;;;21.70;99.90;;;;;;5046945;28;20037;-46
2023/07/22 08:41:04;;;;;;;10.82;8.10;;;22.10;99.90;;;;;;5047036;28;20476;-51
2023/07/22 08:43:34;;;;;;;10.43;8.20;;;22.20;99.90;;;;;;5046720;28;20130;-45
2023/07/22 08:46:03;;;;;;;7.45;6.65;;;22.30;99.90;;;;;;5045534;28;20408;-47
2023/07/22 08:48:33;;;;;;;10.68;7.20;;;22.60;99.90;;;;;;5041202;28;20057;-45
2023/07/22 08:51:10;;;;;;;9.00;7.20;;;22.90;99.90;;;;;;5049181;28;20060;-47
2023/07/22 08:53:37;;;;;;;8.25;7.00;;;22.60;99.90;;;;;;5045561;28;20041;-50
2023/07/22 08:56:05;;;;;;;10.10;6.90;;;22.50;99.90;;;;;;5049436;28;20503;-45
2023/07/22 08:58:34;;;;;;;11.88;7.75;;;22.60;99.90;;;;;;5048107;28;20132;-47
2023/07/22 09:01:02;;;;;;;11.73;7.30;;;22.80;99.90;;;;;;5047219;28;20417;-48
2023/07/22 09:03:29;;;;;;;11.27;7.30;;;22.90;99.90;;;;;;5048426;28;20052;-46
2023/07/22 09:05:58;;;;;;;9.90;7.72;;;23.20;99.90;;;;;;5048611;28;20053;-43
2023/07/22 09:08:25;;;;;;;9.25;7.95;;;23.40;99.90;;;;;;5049133;28;20140;-45
2023/07/22 09:10:53;;;;;;;11.82;7.60;;;23.60;99.90;;;;;;5048841;28;20107;-44
2023/07/22 09:13:22;;;;;;;10.15;7.35;;;24.00;99.90;;;;;;5049051;28;20045;-45
2023/07/22 09:15:50;;;;;;;8.25;6.90;;;24.00;99.90;;;;;;5048194;28;20094;-50
2023/07/22 09:18:18;;;;;;;9.65;7.13;;;23.90;99.90;;;;;;5048526;28;20049;-55
2023/07/22 09:20:46;;;;;;;8.35;6.90;;;23.90;99.90;;;;;;5047411;28;20049;-45
2023/07/22 09:23:13;;;;;;;10.68;6.97;;;24.30;99.90;;;;;;5046739;28;20045;-45
2023/07/22 09:25:42;;;;;;;9.80;7.50;;;24.60;99.90;;;;;;5044131;28;20099;-45
2023/07/22 09:28:10;;;;;;;9.15;7.20;;;24.50;99.90;;;;;;5047328;28;20103;-47
2023/07/22 09:30:39;;;;;;;10.10;7.10;;;24.30;99.90;;;;;;5047422;28;20574;-44
2023/07/22 09:33:22;;;;;;;10.00;6.72;;;24.00;99.90;;;;;;5047431;28;20463;-45
2023/07/22 09:35:51;;;;;;;10.38;6.72;;;23.90;99.90;;;;;;5043756;28;20476;-45
2023/07/22 09:38:25;;;;;;;7.93;6.90;;;23.80;99.90;;;;;;5048193;28;20136;-52
2023/07/22 09:40:53;;;;;;;10.32;7.45;;;24.00;99.90;;;;;;5030466;28;20083;-45
2023/07/22 09:43:23;;;;;;;8.07;6.65;;;24.10;99.90;;;;;;5046418;28;20083;-42
2023/07/22 09:45:50;;;;;;;9.77;6.90;;;24.00;99.90;;;;;;5047499;28;20049;-48
2023/07/22 09:48:17;;;;;;;8.95;6.70;;;24.00;99.90;;;;;;5048448;28;20048;-47
2023/07/22 09:50:46;;;;;;;7.85;7.07;;;24.10;99.90;;;;;;5045900;28;20052;-45
2023/07/22 09:53:16;;;;;;;8.88;7.80;;;24.30;99.90;;;;;;5048667;28;20144;-52
2023/07/22 09:55:44;;;;;;;7.80;6.90;;;24.40;99.90;;;;;;5047568;28;20512;-50
2023/07/22 09:58:14;;;;;;;7.35;6.65;;;24.50;99.90;;;;;;5047053;28;20041;-45
2023/07/22 10:00:51;;;;;;;9.77;6.78;;;24.90;99.90;;;;;;5048893;28;20069;-46
2023/07/22 10:03:19;;;;;;;7.22;6.40;;;25.20;99.90;;;;;;5045055;28;20076;-51
2023/07/22 10:05:50;;;;;;;8.77;6.18;;;25.70;99.90;;;;;;5027202;28;20124;-44
2023/07/22 10:08:19;;;;;;;9.10;6.50;;;26.20;99.90;;;;;;5047236;28;20462;-45
2023/07/22 10:10:51;;;;;;;8.88;6.47;;;26.50;99.90;;;;;;5043404;28;20045;-43
2023/07/22 10:13:19;;;;;;;7.35;6.40;;;26.70;99.90;;;;;;5046143;28;20151;-41
2023/07/22 10:15:48;;;;;;;9.48;7.22;;;26.60;99.90;;;;;;5046543;28;20136;-49
2023/07/22 10:18:16;;;;;;;8.73;7.00;;;26.20;99.90;;;;;;5045555;28;20049;-45
2023/07/22 10:20:44;;;;;;;8.20;6.85;;;26.10;99.90;;;;;;5045803;28;20792;-45
2023/07/22 10:23:14;;;;;;;7.68;6.93;;;25.80;99.90;;;;;;5046752;28;20045;-46
2023/07/22 10:25:43;;;;;;;7.68;6.63;;;25.30;99.90;;;;;;5046542;28;20628;-44
2023/07/22 10:28:10;;;;;;;8.02;6.90;;;24.90;99.90;;;;;;5045831;28;20073;-56
2023/07/22 10:30:38;;;;;;;7.57;6.32;;;24.60;99.90;;;;;;5045735;28;20140;-47
2023/07/22 10:33:05;;;;;;;9.10;6.60;;;24.20;99.90;;;;;;5045970;28;20555;-44
2023/07/22 10:35:32;;;;;;;9.07;6.50;;;24.10;99.90;;;;;;5046215;28;20106;-49
2023/07/22 10:38:16;;;;;;;8.18;7.38;;;24.00;99.90;;;;;;5047369;28;20037;-46
2023/07/22 10:40:47;;;;;;;7.18;6.40;;;23.90;99.90;;;;;;5048170;28;20033;-44
2023/07/22 10:43:31;;;;;;;7.70;6.90;;;23.50;99.90;;;;;;5047596;28;20494;-48
2023/07/22 10:46:07;;;;;;;8.48;7.00;;;23.60;99.90;;;;;;5044610;28;20493;-48
2023/07/22 10:48:37;;;;;;;7.63;6.30;;;23.70;99.90;;;;;;5045161;28;20963;-45
2023/07/22 10:51:10;;;;;;;8.23;7.25;;;23.80;99.90;;;;;;5045163;28;20045;-47
2023/07/22 10:53:43;;;;;;;7.90;6.55;;;23.90;99.90;;;;;;5047169;28;20110;-43
2023/07/22 10:56:13;;;;;;;7.10;6.40;;;24.00;99.90;;;;;;5045836;28;20114;-42
2023/07/22 10:58:46;;;;;;;9.35;6.45;;;24.40;99.90;;;;;;5045411;28;20478;-48
2023/07/22 11:01:28;;;;;;;7.03;6.07;;;24.40;99.90;;;;;;5045743;28;20123;-46
2023/07/22 11:04:11;;;;;;;7.97;6.40;;;24.80;99.90;;;;;;5043839;28;20051;-43
2023/07/22 11:06:48;;;;;;;6.57;5.72;;;25.00;99.90;;;;;;5047344;28;20087;-45
2023/07/22 11:09:29;;;;;;;7.63;6.38;;;25.10;99.90;;;;;;5042833;28;20140;-43
2023/07/22 11:12:07;;;;;;;7.50;5.80;;;24.90;99.90;;;;;;5046118;28;20044;-45
2023/07/22 11:14:46;;;;;;;6.00;5.50;;;25.00;99.90;;;;;;5044156;28;20048;-46
2023/07/22 11:17:14;;;;;;;7.95;5.97;;;25.40;99.90;;;;;;5046677;28;20095;-48
2023/07/22 11:19:41;;;;;;;7.18;5.57;;;25.40;99.90;;;;;;5045062;28;20405;-45
2023/07/22 11:22:10;;;;;;;8.52;5.60;;;25.20;99.90;;;;;;5046039;28;20413;-44
2023/07/22 11:24:37;;;;;;;7.10;5.70;;;25.50;99.90;;;;;;5045762;28;20136;-45
2023/07/22 11:27:06;;;;;;;7.65;5.68;;;26.00;99.90;;;;;;5046836;28;20045;-46
2023/07/22 11:29:35;;;;;;;8.50;5.50;;;26.20;99.90;;;;;;5046758;28;20072;-47
2023/07/22 11:32:03;;;;;;;7.03;5.32;;;26.70;99.50;;;;;;5046822;28;20049;-47
2023/07/22 11:34:32;;;;;;;6.25;5.63;;;26.80;98.60;;;;;;5045384;28;20493;-43
2023/07/22 11:36:59;;;;;;;6.22;5.63;;;27.10;97.80;;;;;;5044604;28;20045;-48
2023/07/22 11:39:28;;;;;;;8.20;5.85;;;26.30;97.50;;;;;;5045251;28;20045;-49
2023/07/22 11:41:56;;;;;;;6.20;5.25;;;26.40;97.40;;;;;;5045834;28;20133;-47
2023/07/22 11:44:28;;;;;;;6.43;5.53;;;26.40;97.80;;;;;;5046076;28;20037;-47
2023/07/22 11:47:04;;;;;;;6.30;5.70;;;25.90;97.90;;;;;;5047662;28;20470;-42
2023/07/22 11:49:33;;;;;;;6.32;5.53;;;25.20;99.00;;;;;;5049292;28;20049;-43
2023/07/22 11:52:09;;;;;;;9.18;5.80;;;25.10;99.40;;;;;;5049880;28;20048;-42
2023/07/22 11:54:41;;;;;;;9.57;6.03;;;25.10;99.10;;;;;;5048652;28;20064;-42
2023/07/22 11:57:22;;;;;;;5.72;5.10;;;25.20;99.30;;;;;;5047493;28;20129;-44
2023/07/22 11:59:52;;;;;;;6.60;5.50;;;24.70;99.90;;;;;;5048785;28;20051;-42
2023/07/22 12:02:28;;;;;;;8.40;5.78;;;24.70;99.90;;;;;;5050449;28;20048;-46
2023/07/22 12:05:00;;;;;;;10.25;5.25;;;24.70;99.90;;;;;;5048870;28;20135;-46
2023/07/22 12:07:32;;;;;;;5.43;4.93;;;24.70;99.90;;;;;;5049615;28;20557;-44
2023/07/22 12:10:02;;;;;;;6.45;4.88;;;25.30;99.90;;;;;;5049541;28;20052;-49
2023/07/22 12:12:36;;;;;;;5.63;5.10;;;25.30;99.90;;;;;;5049820;28;20535;-46
2023/07/22 12:15:17;;;;;;;9.88;5.40;;;25.70;99.90;;;;;;5047224;28;20071;-47
2023/07/22 12:17:48;;;;;;;7.30;5.55;;;26.20;99.10;;;;;;5049896;28;20132;-44
2023/07/22 12:20:16;;;;;;;5.70;5.10;;;26.60;98.10;;;;;;5049040;28;20347;-45
2023/07/22 12:22:44;;;;;;;6.00;5.35;;;27.70;97.00;;;;;;5050104;28;20523;-49
2023/07/22 12:25:11;;;;;;;6.55;5.15;;;28.70;95.40;;;;;;5050040;28;20140;-49
2023/07/22 12:27:39;;;;;;;7.80;5.53;;;28.90;94.20;;;;;;5044501;28;20140;-42
2023/07/22 12:30:07;;;;;;;6.03;5.43;;;29.10;93.50;;;;;;5046115;28;20033;-51
2023/07/22 12:32:34;;;;;;;6.22;5.63;;;29.30;92.60;;;;;;5047332;28;20132;-45
2023/07/22 12:35:03;;;;;;;7.07;5.65;;;28.30;92.50;;;;;;5047472;28;20047;-47
2023/07/22 12:37:31;;;;;;;5.60;5.10;;;27.90;92.70;;;;;;5048638;28;20152;-48
2023/07/22 12:39:58;;;;;;;5.40;4.85;;;27.90;93.10;;;;;;5048944;28;20053;-46
2023/07/22 12:42:25;;;;;;;6.03;5.20;;;27.90;93.10;;;;;;5047182;28;20437;-49
2023/07/22 12:44:52;;;;;;;5.88;5.28;;;28.10;93.00;;;;;;5047104;28;20083;-45
2023/07/22 12:47:20;;;;;;;6.38;5.35;;;28.40;92.70;;;;;;5047534;28;20107;-48
2023/07/22 12:49:47;;;;;;;5.70;5.03;;;28.40;92.60;;;;;;5048139;28;20059;-47
2023/07/22 12:52:15;;;;;;;7.78;5.07;;;29.00;92.00;;;;;;5048684;28;20505;-48
2023/07/22 12:54:42;;;;;;;6.10;5.20;;;29.90;90.60;;;;;;5049848;28;20128;-45